Time,TemperatureF,DewpointF,PressureIn,WindDirection,WindDirectionDegrees,WindSpeedMPH,WindSpeedGustMPH,Humidity,HourlyPrecipIn,Conditions,Clouds,dailyrainin,SoftwareType,DateUTC
2013-11-26 00:00:00,29.4,13.0,30.22,ESE,109,2.0,2.0,50,0.00,,,0.00,Wunderground v.1.15,2013-11-26 05:00:00,
2013-11-26 00:10:00,29.5,12.2,30.22,ESE,116,2.0,2.0,48,0.00,,,0.00,Wunderground v.1.15,2013-11-26 05:10:00,
2013-11-26 00:20:00,29.7,12.8,30.21,SE,131,2.0,2.0,49,0.00,,,0.00,Wunderground v.1.15,2013-11-26 05:20:00,
2013-11-26 00:30:00,29.7,12.4,30.22,SSE,160,2.0,4.0,48,0.00,,,0.00,Wunderground v.1.15,2013-11-26 05:30:00,
2013-11-26 00:40:00,30.0,12.2,30.22,ESE,106,3.0,3.0,47,0.00,,,0.00,Wunderground v.1.15,2013-11-26 05:40:00,
2013-11-26 00:50:00,30.6,11.2,30.20,SE,143,4.0,4.0,44,0.00,,,0.00,Wunderground v.1.15,2013-11-26 05:50:00,
2013-11-26 01:00:00,30.6,11.2,30.22,ESE,114,2.0,2.0,44,0.00,,,0.00,Wunderground v.1.15,2013-11-26 06:00:00,
2013-11-26 01:10:00,30.6,11.2,30.22,ESE,106,4.0,4.0,44,0.00,,,0.00,Wunderground v.1.15,2013-11-26 06:10:00,
2013-11-26 01:20:00,30.7,11.3,30.22,SE,139,4.0,4.0,44,0.00,,,0.00,Wunderground v.1.15,2013-11-26 06:20:00,
2013-11-26 01:30:00,30.7,11.3,30.23,ESE,121,2.0,9.0,44,0.00,,,0.00,Wunderground v.1.15,2013-11-26 06:30:00,
2013-11-26 01:40:00,30.6,11.2,30.23,SE,126,3.0,9.0,44,0.00,,,0.00,Wunderground v.1.15,2013-11-26 06:40:00,
2013-11-26 01:50:00,30.9,13.0,30.23,ESE,116,5.0,5.0,47,0.00,,,0.00,Wunderground v.1.15,2013-11-26 06:50:00,
2013-11-26 02:00:00,31.0,13.6,30.23,ESE,121,4.0,9.0,48,0.00,,,0.00,Wunderground v.1.15,2013-11-26 07:00:00,
2013-11-26 02:10:00,31.2,12.8,30.23,East,95,4.0,9.0,46,0.00,,,0.00,Wunderground v.1.15,2013-11-26 07:10:00,
2013-11-26 02:20:00,31.0,12.6,30.24,SE,141,5.0,9.0,46,0.00,,,0.00,Wunderground v.1.15,2013-11-26 07:20:00,
2013-11-26 02:30:00,30.9,14.0,30.24,SE,126,5.0,5.0,49,0.00,,,0.00,Wunderground v.1.15,2013-11-26 07:30:00,
2013-11-26 02:40:00,30.0,18.5,30.24,East,83,8.0,9.0,62,0.00,,,0.00,Wunderground v.1.15,2013-11-26 07:40:00,
2013-11-26 02:50:00,28.8,20.9,30.26,SSE,154,5.0,9.0,72,0.00,,,0.00,Wunderground v.1.15,2013-11-26 07:50:00,
2013-11-26 03:00:00,27.9,21.3,30.25,SE,144,4.0,4.0,76,0.00,,,0.00,Wunderground v.1.15,2013-11-26 08:00:00,
2013-11-26 03:10:00,27.5,21.8,30.25,ESE,109,1.0,9.0,79,0.00,,,0.00,Wunderground v.1.15,2013-11-26 08:10:00,
2013-11-26 03:20:00,26.7,22.5,30.25,SSE,158,2.0,9.0,84,0.00,,,0.00,Wunderground v.1.15,2013-11-26 08:20:00,
2013-11-26 03:30:00,26.4,23.3,30.24,SSE,160,2.0,9.0,88,0.00,,,0.00,Wunderground v.1.15,2013-11-26 08:30:00,
2013-11-26 03:40:00,26.3,23.8,30.24,SE,126,2.0,9.0,90,0.00,,,0.00,Wunderground v.1.15,2013-11-26 08:40:00,
2013-11-26 03:50:00,26.1,23.8,30.24,ESE,108,3.0,3.0,91,0.00,,,0.00,Wunderground v.1.15,2013-11-26 08:50:00,
2013-11-26 04:00:00,26.0,23.7,30.25,SE,137,2.0,2.0,91,0.00,,,0.00,Wunderground v.1.15,2013-11-26 09:00:00,
2013-11-26 04:10:00,26.1,23.6,30.25,ESE,121,2.0,2.0,90,0.00,,,0.00,Wunderground v.1.15,2013-11-26 09:10:00,
2013-11-26 04:20:00,26.1,23.6,30.25,SSE,164,2.0,9.0,90,0.00,,,0.00,Wunderground v.1.15,2013-11-26 09:20:00,
2013-11-26 04:30:00,26.1,23.6,30.25,ESE,121,3.0,9.0,90,0.00,,,0.00,Wunderground v.1.15,2013-11-26 09:30:00,
2013-11-26 04:40:00,26.1,23.6,30.25,ESE,110,2.0,9.0,90,0.00,,,0.00,Wunderground v.1.15,2013-11-26 09:40:00,
2013-11-26 04:50:00,26.4,23.6,30.25,SE,136,4.0,4.0,89,0.00,,,0.00,Wunderground v.1.15,2013-11-26 09:50:00,
2013-11-26 05:00:00,26.6,23.8,30.25,SE,143,3.0,3.0,89,0.00,,,0.00,Wunderground v.1.15,2013-11-26 10:00:00,
2013-11-26 05:10:00,26.7,24.2,30.25,ESE,106,2.0,9.0,90,0.00,,,0.00,Wunderground v.1.15,2013-11-26 10:10:00,
2013-11-26 05:20:00,26.9,24.4,30.24,SE,126,3.0,9.0,90,0.00,,,0.00,Wunderground v.1.15,2013-11-26 10:20:00,
2013-11-26 05:30:00,26.9,24.4,30.24,SE,131,2.0,9.0,90,0.00,,,0.00,Wunderground v.1.15,2013-11-26 10:30:00,
2013-11-26 05:40:00,26.9,24.4,30.24,ESE,114,1.0,1.0,90,0.00,,,0.00,Wunderground v.1.15,2013-11-26 10:40:00,
2013-11-26 05:50:00,27.0,24.2,30.23,ESE,110,1.0,1.0,89,0.00,,,0.00,Wunderground v.1.15,2013-11-26 10:50:00,
2013-11-26 06:00:00,27.0,24.2,30.23,SSE,148,1.0,9.0,89,0.00,,,0.00,Wunderground v.1.15,2013-11-26 11:00:00,
2013-11-26 06:10:00,27.0,24.2,30.23,SE,131,2.0,2.0,89,0.00,,,0.00,Wunderground v.1.15,2013-11-26 11:10:00,
2013-11-26 06:20:00,27.0,24.2,30.25,SE,135,2.0,7.0,89,0.00,,,0.00,Wunderground v.1.15,2013-11-26 11:20:00,
2013-11-26 06:30:00,27.2,24.4,30.25,ESE,110,3.0,3.0,89,0.00,,,0.00,Wunderground v.1.15,2013-11-26 11:30:00,
2013-11-26 06:40:00,27.3,24.5,30.25,ESE,110,2.0,2.0,89,0.00,,,0.00,Wunderground v.1.15,2013-11-26 11:40:00,
2013-11-26 06:50:00,27.3,24.5,30.24,SE,126,2.0,5.0,89,0.00,,,0.00,Wunderground v.1.15,2013-11-26 11:50:00,
2013-11-26 07:00:00,27.3,24.2,30.26,SSE,155,2.0,3.0,88,0.00,,,0.00,Wunderground v.1.15,2013-11-26 12:00:00,
2013-11-26 07:10:00,27.5,24.4,30.26,SSE,166,1.0,9.0,88,0.00,,,0.00,Wunderground v.1.15,2013-11-26 12:10:00,
2013-11-26 07:20:00,27.5,24.7,30.28,ESE,108,2.0,9.0,89,0.00,,,0.00,Wunderground v.1.15,2013-11-26 12:20:00,
2013-11-26 07:30:00,27.5,24.7,30.28,ESE,111,2.0,2.0,89,0.00,,,0.00,Wunderground v.1.15,2013-11-26 12:30:00,
2013-11-26 07:40:00,27.5,24.4,30.28,ESE,111,3.0,9.0,88,0.00,,,0.00,Wunderground v.1.15,2013-11-26 12:40:00,
2013-11-26 07:50:00,27.6,24.5,30.28,ESE,121,2.0,2.0,88,0.00,,,0.00,Wunderground v.1.15,2013-11-26 12:50:00,
2013-11-26 08:00:00,27.8,24.4,30.28,SE,141,2.0,2.0,87,0.00,,,0.00,Wunderground v.1.15,2013-11-26 13:00:00,
2013-11-26 08:10:00,27.9,24.5,30.28,ESE,116,2.0,2.0,87,0.00,,,0.00,Wunderground v.1.15,2013-11-26 13:10:00,
2013-11-26 08:20:00,28.1,24.7,30.29,ESE,115,2.0,9.0,87,0.00,,,0.00,Wunderground v.1.15,2013-11-26 13:20:00,
2013-11-26 08:30:00,28.4,25.0,30.29,SE,131,2.0,2.0,87,0.00,,,0.00,Wunderground v.1.15,2013-11-26 13:30:00,
2013-11-26 08:40:00,28.5,24.6,30.29,SSE,158,3.0,9.0,85,0.00,,,0.00,Wunderground v.1.15,2013-11-26 13:40:00,
2013-11-26 08:50:00,28.8,24.9,30.29,East,97,3.0,3.0,85,0.00,,,0.00,Wunderground v.1.15,2013-11-26 13:50:00,
2013-11-26 09:00:00,29.1,25.2,30.29,East,87,1.0,9.0,85,0.00,,,0.00,Wunderground v.1.15,2013-11-26 14:00:00,
2013-11-26 09:10:00,29.5,25.5,30.29,ESE,109,1.0,9.0,85,0.00,,,0.00,Wunderground v.1.15,2013-11-26 14:10:00,
2013-11-26 09:20:00,29.7,25.5,30.28,SE,131,2.0,9.0,84,0.00,,,0.00,Wunderground v.1.15,2013-11-26 14:20:00,
2013-11-26 09:30:00,30.1,25.6,30.28,SSE,150,2.0,9.0,83,0.00,,,0.00,Wunderground v.1.15,2013-11-26 14:30:00,
2013-11-26 09:40:00,30.6,25.8,30.28,SSE,149,1.0,1.0,82,0.00,,,0.00,Wunderground v.1.15,2013-11-26 14:40:00,
2013-11-26 09:50:00,31.0,25.9,30.29,ESE,116,1.0,9.0,81,0.00,,,0.00,Wunderground v.1.15,2013-11-26 14:50:00,
2013-11-26 10:00:00,31.2,25.7,30.29,ESE,121,2.0,9.0,80,0.00,,,0.00,Wunderground v.1.15,2013-11-26 15:00:00,
2013-11-26 10:10:00,31.5,26.3,30.29,SSE,156,2.0,9.0,81,0.00,,,0.00,Wunderground v.1.15,2013-11-26 15:10:00,
2013-11-26 10:20:00,31.8,26.0,30.29,ESE,112,3.0,3.0,79,0.00,,,0.01,Wunderground v.1.15,2013-11-26 15:20:00,
2013-11-26 10:30:00,32.2,26.1,30.28,ESE,116,1.0,9.0,78,0.00,,,0.01,Wunderground v.1.15,2013-11-26 15:30:00,
2013-11-26 10:40:00,32.1,26.0,30.28,ESE,121,2.0,2.0,78,0.00,,,0.01,Wunderground v.1.15,2013-11-26 15:40:00,
2013-11-26 10:50:00,32.1,26.3,30.27,SE,135,2.0,9.0,79,0.00,,,0.01,Wunderground v.1.15,2013-11-26 15:50:00,
2013-11-26 11:00:00,32.4,26.6,30.26,SE,131,3.0,3.0,79,0.00,,,0.02,Wunderground v.1.15,2013-11-26 16:00:00,
2013-11-26 11:10:00,32.5,26.4,30.26,ESE,117,2.0,9.0,78,0.00,,,0.02,Wunderground v.1.15,2013-11-26 16:10:00,
2013-11-26 11:20:00,32.7,26.3,30.25,ESE,110,3.0,9.0,77,0.00,,,0.02,Wunderground v.1.15,2013-11-26 16:20:00,
2013-11-26 11:30:00,32.9,26.8,30.25,East,91,2.0,9.0,78,0.00,,,0.03,Wunderground v.1.15,2013-11-26 16:30:00,
2013-11-26 11:40:00,32.9,26.2,30.25,SE,136,4.0,4.0,76,0.00,,,0.03,Wunderground v.1.15,2013-11-26 16:40:00,
2013-11-26 11:50:00,33.4,26.6,30.26,SSE,154,2.0,2.0,76,0.00,,,0.03,Wunderground v.1.15,2013-11-26 16:50:00,
2013-11-26 12:00:00,33.2,26.5,30.27,South,187,3.0,3.0,76,0.00,,,0.03,Wunderground v.1.15,2013-11-26 17:00:00,
2013-11-26 12:10:00,33.4,26.6,30.27,SE,135,1.0,1.0,76,0.00,,,0.03,Wunderground v.1.15,2013-11-26 17:10:00,
2013-11-26 12:20:00,33.7,26.6,30.26,East,94,0.0,2.0,75,0.00,,,0.03,Wunderground v.1.15,2013-11-26 17:20:00,
2013-11-26 12:30:00,33.5,26.7,30.25,ESE,121,2.0,2.0,76,0.00,,,0.04,Wunderground v.1.15,2013-11-26 17:30:00,
2013-11-26 12:40:00,33.5,26.7,30.25,SSE,148,1.0,3.0,76,0.00,,,0.04,Wunderground v.1.15,2013-11-26 17:40:00,
2013-11-26 12:50:00,33.7,26.6,30.25,ESE,121,1.0,1.0,75,0.00,,,0.04,Wunderground v.1.15,2013-11-26 17:50:00,
2013-11-26 13:00:00,33.7,26.6,30.25,SE,131,1.0,1.0,75,0.00,,,0.04,Wunderground v.1.15,2013-11-26 18:00:00,
2013-11-26 13:10:00,33.8,26.7,30.25,SE,131,0.0,11.0,75,0.00,,,0.04,Wunderground v.1.15,2013-11-26 18:10:00,
2013-11-26 13:20:00,33.8,27.4,30.25,SE,131,0.0,11.0,77,0.00,,,0.04,Wunderground v.1.15,2013-11-26 18:20:00,
2013-11-26 13:30:00,33.8,27.0,30.24,SE,131,0.0,11.0,76,0.00,,,0.04,Wunderground v.1.15,2013-11-26 18:30:00,
2013-11-26 13:40:00,34.0,27.5,30.24,SE,131,0.0,11.0,77,0.00,,,0.05,Wunderground v.1.15,2013-11-26 18:40:00,
2013-11-26 13:50:00,34.0,27.2,30.24,SE,131,0.0,11.0,76,0.00,,,0.05,Wunderground v.1.15,2013-11-26 18:50:00,
2013-11-26 14:00:00,34.1,27.6,30.25,SE,131,0.0,11.0,77,0.00,,,0.05,Wunderground v.1.15,2013-11-26 19:00:00,
2013-11-26 14:10:00,34.3,27.5,30.25,SE,131,0.0,11.0,76,0.00,,,0.05,Wunderground v.1.15,2013-11-26 19:10:00,
2013-11-26 14:20:00,34.3,27.8,30.23,SE,131,0.0,11.0,77,0.00,,,0.05,Wunderground v.1.15,2013-11-26 19:20:00,
2013-11-26 14:30:00,34.1,27.6,30.23,SE,131,0.0,11.0,77,0.00,,,0.05,Wunderground v.1.15,2013-11-26 19:30:00,
2013-11-26 14:40:00,34.0,27.5,30.23,SE,131,0.0,11.0,77,0.00,,,0.05,Wunderground v.1.15,2013-11-26 19:40:00,
2013-11-26 14:50:00,34.1,28.0,30.23,SE,131,0.0,11.0,78,0.00,,,0.05,Wunderground v.1.15,2013-11-26 19:50:00,
2013-11-26 15:00:00,34.1,28.0,30.23,SE,131,0.0,11.0,78,0.00,,,0.05,Wunderground v.1.15,2013-11-26 20:00:00,
2013-11-26 15:10:00,34.1,27.6,30.23,SE,131,0.0,11.0,77,0.00,,,0.05,Wunderground v.1.15,2013-11-26 20:10:00,
2013-11-26 15:20:00,33.8,27.7,30.23,ESE,113,1.0,1.0,78,0.00,,,0.05,Wunderground v.1.15,2013-11-26 20:20:00,
2013-11-26 15:30:00,33.7,27.9,30.22,East,91,0.0,11.0,79,0.00,,,0.05,Wunderground v.1.15,2013-11-26 20:30:00,
2013-11-26 15:40:00,33.5,27.7,30.22,ENE,64,0.0,11.0,79,0.00,,,0.05,Wunderground v.1.15,2013-11-26 20:40:00,
2013-11-26 15:50:00,33.2,28.0,30.22,ESE,104,1.0,1.0,81,0.00,,,0.05,Wunderground v.1.15,2013-11-26 20:50:00,
2013-11-26 16:00:00,33.1,28.2,30.21,East,95,1.0,1.0,82,0.00,,,0.05,Wunderground v.1.15,2013-11-26 21:00:00,
2013-11-26 16:10:00,32.9,28.3,30.21,ESE,109,0.0,11.0,83,0.00,,,0.05,Wunderground v.1.15,2013-11-26 21:10:00,
2013-11-26 16:20:00,32.9,28.3,30.21,East,85,2.0,11.0,83,0.00,,,0.05,Wunderground v.1.15,2013-11-26 21:20:00,
2013-11-26 16:30:00,32.9,28.3,30.21,East,91,2.0,11.0,83,0.00,,,0.05,Wunderground v.1.15,2013-11-26 21:30:00,
2013-11-26 16:40:00,32.9,28.3,30.21,ESE,108,3.0,11.0,83,0.00,,,0.05,Wunderground v.1.15,2013-11-26 21:40:00,
2013-11-26 16:50:00,32.8,28.5,30.20,SE,139,3.0,3.0,84,0.00,,,0.05,Wunderground v.1.15,2013-11-26 21:50:00,
2013-11-26 17:00:00,32.7,28.7,30.18,SSE,148,3.0,11.0,85,0.00,,,0.05,Wunderground v.1.15,2013-11-26 22:00:00,
2013-11-26 17:10:00,32.7,29.0,30.18,SSE,154,4.0,11.0,86,0.00,,,0.05,Wunderground v.1.15,2013-11-26 22:10:00,
2013-11-26 17:20:00,32.4,29.2,30.18,SSE,156,4.0,4.0,88,0.00,,,0.05,Wunderground v.1.15,2013-11-26 22:20:00,
2013-11-26 17:30:00,31.6,29.3,30.18,SSE,164,2.0,2.0,91,0.00,,,0.05,Wunderground v.1.15,2013-11-26 22:30:00,
2013-11-26 17:40:00,31.5,29.2,30.18,SSE,164,0.0,11.0,91,0.00,,,0.05,Wunderground v.1.15,2013-11-26 22:40:00,
2013-11-26 17:50:00,31.3,29.2,30.18,SSE,164,0.0,11.0,92,0.00,,,0.05,Wunderground v.1.15,2013-11-26 22:50:00,
2013-11-26 18:00:00,31.3,29.5,30.17,SSE,164,0.0,11.0,93,0.00,,,0.05,Wunderground v.1.15,2013-11-26 23:00:00,
2013-11-26 18:10:00,31.2,29.7,30.17,SSE,164,0.0,0.0,94,0.00,,,0.05,Wunderground v.1.15,2013-11-26 23:10:00,
2013-11-26 18:20:00,31.0,29.5,30.17,SSE,164,0.0,0.0,94,0.00,,,0.05,Wunderground v.1.15,2013-11-26 23:20:00,
2013-11-26 18:30:00,31.0,29.7,30.16,SSE,164,0.0,0.0,95,0.00,,,0.05,Wunderground v.1.15,2013-11-26 23:30:00,
2013-11-26 18:40:00,31.0,29.7,30.16,SSE,164,0.0,0.0,95,0.00,,,0.05,Wunderground v.1.15,2013-11-26 23:40:00,
2013-11-26 18:50:00,31.0,30.0,30.15,SSE,164,0.0,0.0,96,0.00,,,0.05,Wunderground v.1.15,2013-11-26 23:50:00,
2013-11-26 19:00:00,31.0,30.0,30.16,South,173,0.0,0.0,96,0.00,,,0.05,Wunderground v.1.15,2013-11-27 00:00:00,
2013-11-26 19:10:00,31.0,30.0,30.16,South,174,0.0,0.0,96,0.00,,,0.05,Wunderground v.1.15,2013-11-27 00:10:00,
2013-11-26 19:20:00,31.0,30.2,30.15,South,173,0.0,0.0,97,0.00,,,0.05,Wunderground v.1.15,2013-11-27 00:20:00,
2013-11-26 19:30:00,31.0,30.2,30.15,South,174,0.0,0.0,97,0.00,,,0.05,Wunderground v.1.15,2013-11-27 00:30:00,
2013-11-26 19:40:00,31.0,30.2,30.15,South,174,0.0,0.0,97,0.00,,,0.05,Wunderground v.1.15,2013-11-27 00:40:00,
2013-11-26 19:50:00,31.0,30.2,30.13,South,174,0.0,0.0,97,0.00,,,0.05,Wunderground v.1.15,2013-11-27 00:50:00,
2013-11-26 20:00:00,31.0,30.5,30.12,South,174,0.0,0.0,98,0.00,,,0.05,Wunderground v.1.15,2013-11-27 01:00:00,
2013-11-26 20:10:00,31.0,30.5,30.12,SE,143,0.0,3.0,98,0.00,,,0.05,Wunderground v.1.15,2013-11-27 01:10:00,
2013-11-26 20:20:00,31.2,30.7,30.11,South,181,1.0,1.0,98,0.00,,,0.05,Wunderground v.1.15,2013-11-27 01:20:00,
2013-11-26 20:30:00,31.3,30.8,30.10,SSE,156,1.0,1.0,98,0.00,,,0.05,Wunderground v.1.15,2013-11-27 01:30:00,
2013-11-26 20:40:00,31.5,31.0,30.10,SSE,155,1.0,2.0,98,0.00,,,0.05,Wunderground v.1.15,2013-11-27 01:40:00,
2013-11-26 20:50:00,31.5,31.3,30.09,SSE,151,0.0,0.0,99,0.00,,,0.05,Wunderground v.1.15,2013-11-27 01:50:00,
2013-11-26 21:00:00,31.6,31.4,30.09,SSE,151,0.0,0.0,99,0.00,,,0.05,Wunderground v.1.15,2013-11-27 02:00:00,
2013-11-26 21:10:00,31.6,31.4,30.09,SSE,151,0.0,0.0,99,0.00,,,0.05,Wunderground v.1.15,2013-11-27 02:10:00,
2013-11-26 21:20:00,31.8,31.6,30.06,SSE,151,0.0,0.0,99,0.00,,,0.05,Wunderground v.1.15,2013-11-27 02:20:00,
2013-11-26 21:30:00,31.8,31.6,30.05,SSE,151,0.0,0.0,99,0.00,,,0.05,Wunderground v.1.15,2013-11-27 02:30:00,
2013-11-26 21:40:00,31.8,31.6,30.05,SSE,151,0.0,0.0,99,0.00,,,0.05,Wunderground v.1.15,2013-11-27 02:40:00,
2013-11-26 21:50:00,31.8,31.6,30.03,SSE,151,0.0,0.0,99,0.00,,,0.05,Wunderground v.1.15,2013-11-27 02:50:00,
2013-11-26 22:00:00,31.8,31.6,30.03,SSE,151,0.0,0.0,99,0.00,,,0.05,Wunderground v.1.15,2013-11-27 03:00:00,
2013-11-26 22:10:00,31.9,31.7,30.03,SSE,151,0.0,0.0,99,0.00,,,0.05,Wunderground v.1.15,2013-11-27 03:10:00,
2013-11-26 22:20:00,31.9,31.7,30.02,SSE,151,0.0,0.0,99,0.00,,,0.05,Wunderground v.1.15,2013-11-27 03:20:00,
2013-11-26 22:30:00,31.9,31.7,30.01,SSE,151,0.0,0.0,99,0.00,,,0.05,Wunderground v.1.15,2013-11-27 03:30:00,
2013-11-26 22:40:00,31.9,31.7,30.01,SSE,151,0.0,0.0,99,0.00,,,0.05,Wunderground v.1.15,2013-11-27 03:40:00,
2013-11-26 22:50:00,32.1,31.9,30.00,SSE,151,0.0,0.0,99,0.00,,,0.05,Wunderground v.1.15,2013-11-27 03:50:00,
2013-11-26 23:00:00,31.9,31.7,29.99,SSE,151,0.0,0.0,99,0.00,,,0.05,Wunderground v.1.15,2013-11-27 04:00:00,
2013-11-26 23:10:00,32.1,31.9,29.99,SSE,151,0.0,0.0,99,0.00,,,0.05,Wunderground v.1.15,2013-11-27 04:10:00,
2013-11-26 23:20:00,32.1,31.9,29.98,SSE,151,0.0,0.0,99,0.00,,,0.05,Wunderground v.1.15,2013-11-27 04:20:00,
2013-11-26 23:30:00,32.1,31.9,29.97,SSE,151,0.0,0.0,99,0.00,,,0.05,Wunderground v.1.15,2013-11-27 04:30:00,
2013-11-26 23:40:00,32.1,31.9,29.97,SSE,151,0.0,0.0,99,0.00,,,0.05,Wunderground v.1.15,2013-11-27 04:40:00,
2013-11-26 23:50:00,32.1,31.9,29.96,SSE,151,0.0,0.0,99,0.00,,,0.05,Wunderground v.1.15,2013-11-27 04:50:00,